createdAt,value
2019-03-17T00:00:10.043Z,52.20
2019-03-17T00:02:38.611Z,52.98
2019-03-17T00:05:07.202Z,49.73
2019-03-17T00:07:35.767Z,50.83
2019-03-17T00:10:04.636Z,51.05
2019-03-17T00:12:33.198Z,50.73
2019-03-17T00:15:05.729Z,48.85
2019-03-17T00:17:31.944Z,50.33
2019-03-17T00:20:00.569Z,50.70
2019-03-17T00:22:29.124Z,49.45
2019-03-17T00:25:08.501Z,50.92
2019-03-17T00:27:27.858Z,49.67
2019-03-17T00:29:56.429Z,49.77
2019-03-17T00:32:25.087Z,48.33
2019-03-17T00:34:53.663Z,51.58
2019-03-17T00:37:22.247Z,51.37
2019-03-17T00:39:50.835Z,51.20
2019-03-17T00:42:19.415Z,48.80
2019-03-17T00:44:47.993Z,50.52
2019-03-17T00:47:16.606Z,50.75
2019-03-17T00:49:45.189Z,48.00
2019-03-17T00:52:13.757Z,48.75
2019-03-17T00:54:42.351Z,50.43
2019-03-17T00:57:10.909Z,51.02
2019-03-17T00:59:39.502Z,49.05
2019-03-17T01:02:08.072Z,50.00
2019-03-17T01:04:36.708Z,48.85
2019-03-17T01:07:05.283Z,50.35
2019-03-17T01:09:33.863Z,51.75
2019-03-17T01:12:02.438Z,50.25
2019-03-17T01:14:31.048Z,50.05
2019-03-17T01:16:59.616Z,50.05
2019-03-17T01:19:28.182Z,51.45
2019-03-17T01:21:56.779Z,50.60
2019-03-17T01:24:25.346Z,51.30
2019-03-17T01:26:53.926Z,50.85
2019-03-17T01:29:22.498Z,50.33
2019-03-17T01:31:51.091Z,50.35
2019-03-17T01:34:19.654Z,51.37
2019-03-17T01:36:48.311Z,52.70
2019-03-17T01:39:16.956Z,51.58
2019-03-17T01:41:45.537Z,52.23
2019-03-17T01:44:14.122Z,52.98
2019-03-17T01:46:42.755Z,52.13
2019-03-17T01:49:11.345Z,52.78
2019-03-17T01:51:39.904Z,52.95
2019-03-17T01:54:08.488Z,49.38
2019-03-17T01:56:37.051Z,51.75
2019-03-17T01:59:05.731Z,51.50
2019-03-17T02:01:34.291Z,50.90
2019-03-17T02:04:02.846Z,49.48
2019-03-17T02:06:31.450Z,52.33
2019-03-17T02:08:59.997Z,52.10
2019-03-17T02:11:28.588Z,51.80
2019-03-17T02:13:57.223Z,50.85
2019-03-17T02:16:25.812Z,50.40
2019-03-17T02:18:54.374Z,51.85
2019-03-17T02:21:22.959Z,51.75
2019-03-17T02:23:51.609Z,52.23
2019-03-17T02:26:20.290Z,54.23
2019-03-17T02:28:48.860Z,53.05
2019-03-17T02:31:19.491Z,52.83
2019-03-17T02:33:48.095Z,53.17
2019-03-17T02:36:16.643Z,51.98
2019-03-17T02:38:45.235Z,51.55
2019-03-17T02:41:13.798Z,53.42
2019-03-17T02:43:42.388Z,51.53
2019-03-17T02:46:10.957Z,53.33
2019-03-17T02:48:39.547Z,52.30
2019-03-17T02:51:08.111Z,52.88
2019-03-17T02:53:36.676Z,52.13
2019-03-17T02:56:05.261Z,51.70
2019-03-17T02:58:33.828Z,51.00
2019-03-17T03:01:02.430Z,51.40
2019-03-17T03:03:31.066Z,51.80
2019-03-17T03:05:59.652Z,50.92
2019-03-17T03:08:28.223Z,51.73
2019-03-17T03:10:56.861Z,51.68
2019-03-17T03:13:25.432Z,50.80
2019-03-17T03:15:53.968Z,53.02
2019-03-17T03:18:22.551Z,51.33
2019-03-17T03:20:51.114Z,50.67
2019-03-17T03:23:19.704Z,50.83
2019-03-17T03:25:48.262Z,51.95
2019-03-17T03:28:16.851Z,51.25
2019-03-17T03:30:45.436Z,47.38
2019-03-17T03:33:14.012Z,50.00
2019-03-17T03:35:42.575Z,50.55
2019-03-17T03:38:11.188Z,49.85
2019-03-17T03:40:39.758Z,50.75
2019-03-17T03:43:08.319Z,48.35
2019-03-17T03:45:36.902Z,49.10
2019-03-17T03:48:05.463Z,49.73
2019-03-17T03:50:34.056Z,49.30
2019-03-17T03:53:02.694Z,50.23
2019-03-17T03:55:31.273Z,50.08
2019-03-17T03:57:59.825Z,48.98
2019-03-17T04:00:28.542Z,48.60
2019-03-17T04:02:57.173Z,51.20
2019-03-17T04:05:25.730Z,51.55
2019-03-17T04:07:54.308Z,51.70
2019-03-17T04:10:22.941Z,52.33
2019-03-17T04:12:51.518Z,51.20
2019-03-17T04:15:20.095Z,49.10
2019-03-17T04:17:48.689Z,51.25
2019-03-17T04:20:17.252Z,51.35
2019-03-17T04:22:45.836Z,52.48
2019-03-17T04:25:18.287Z,51.90
2019-03-17T04:27:46.944Z,52.73
2019-03-17T04:30:15.473Z,51.95
2019-03-17T04:32:44.035Z,51.75
2019-03-17T04:35:12.635Z,50.83
2019-03-17T04:37:41.199Z,52.62
2019-03-17T04:40:10.065Z,50.40
2019-03-17T04:42:38.711Z,52.20
2019-03-17T04:45:08.025Z,51.60
2019-03-17T04:47:36.583Z,50.63
2019-03-17T04:50:06.235Z,51.00
2019-03-17T04:52:34.797Z,51.37
2019-03-17T04:55:03.435Z,51.25
2019-03-17T04:57:32.023Z,51.92
2019-03-17T05:00:00.581Z,51.63
2019-03-17T05:02:29.175Z,51.63
2019-03-17T05:04:57.735Z,52.88
2019-03-17T05:07:26.321Z,53.63
2019-03-17T05:09:54.880Z,52.30
2019-03-17T05:12:23.540Z,52.30
2019-03-17T05:14:52.105Z,54.50
2019-03-17T05:17:20.727Z,53.55
2019-03-17T05:19:49.277Z,53.65
2019-03-17T05:22:17.848Z,54.58
2019-03-17T05:24:46.503Z,54.30
2019-03-17T05:27:15.076Z,55.38
2019-03-17T05:29:43.662Z,54.77
2019-03-17T05:32:15.027Z,54.18
2019-03-17T05:34:43.612Z,54.55
2019-03-17T05:37:12.182Z,54.85
2019-03-17T05:39:40.776Z,53.60
2019-03-17T05:42:09.336Z,55.12
2019-03-17T05:44:38.042Z,54.27
2019-03-17T05:47:06.606Z,54.00
2019-03-17T05:49:35.174Z,54.25
2019-03-17T05:52:03.763Z,53.92
2019-03-17T05:54:32.323Z,54.33
2019-03-17T05:57:00.921Z,53.45
2019-03-17T05:59:29.487Z,54.15
2019-03-17T06:01:58.079Z,54.23
2019-03-17T06:04:26.646Z,54.42
2019-03-17T06:06:56.254Z,54.77
2019-03-17T06:09:24.807Z,54.77
2019-03-17T06:11:53.400Z,53.63
2019-03-17T06:14:22.031Z,54.08
2019-03-17T06:16:50.622Z,52.58
2019-03-17T06:19:19.182Z,52.75
2019-03-17T06:21:47.816Z,54.53
2019-03-17T06:24:16.415Z,54.03
2019-03-17T06:26:45.007Z,54.75
2019-03-17T06:29:13.599Z,55.15
2019-03-17T06:31:42.166Z,53.68
2019-03-17T06:34:10.756Z,55.35
2019-03-17T06:36:39.329Z,53.70
2019-03-17T06:39:07.985Z,52.85
2019-03-17T06:41:36.538Z,53.60
2019-03-17T06:44:05.129Z,52.98
2019-03-17T06:46:33.688Z,53.52
2019-03-17T06:49:02.305Z,55.63
2019-03-17T06:51:30.880Z,53.90
2019-03-17T06:53:59.443Z,54.58
2019-03-17T06:56:28.035Z,55.67
2019-03-17T06:58:56.602Z,54.70
2019-03-17T07:01:25.187Z,54.30
2019-03-17T07:03:53.763Z,53.73
2019-03-17T07:06:22.449Z,55.83
2019-03-17T07:08:51.019Z,56.73
2019-03-17T07:11:19.643Z,56.75
2019-03-17T07:13:48.223Z,54.73
2019-03-17T07:16:16.806Z,55.65
2019-03-17T07:18:45.430Z,56.48
2019-03-17T07:21:14.113Z,56.33
2019-03-17T07:23:42.694Z,54.77
2019-03-17T07:26:11.445Z,56.95
2019-03-17T07:28:41.692Z,56.33
2019-03-17T07:31:10.262Z,56.45
2019-03-17T07:33:38.851Z,56.37
2019-03-17T07:36:07.419Z,55.90
2019-03-17T07:38:36.006Z,55.40
2019-03-17T07:41:04.584Z,55.78
2019-03-17T07:43:33.165Z,57.33
2019-03-17T07:46:01.811Z,52.88
2019-03-17T07:48:30.412Z,55.23
2019-03-17T07:50:59.020Z,55.85
2019-03-17T07:53:27.622Z,55.95
2019-03-17T07:55:56.203Z,54.08
2019-03-17T07:58:24.774Z,55.58
2019-03-17T08:00:53.369Z,54.93
2019-03-17T08:03:21.940Z,55.12
2019-03-17T08:05:50.526Z,52.88
2019-03-17T08:08:19.086Z,55.58
2019-03-17T08:10:47.684Z,55.20
2019-03-17T08:13:16.268Z,56.88
2019-03-17T08:15:44.891Z,54.55
2019-03-17T08:18:13.467Z,53.05
2019-03-17T08:20:42.033Z,50.85
2019-03-17T08:23:10.636Z,50.43
2019-03-17T08:25:39.211Z,47.38
2019-03-17T08:28:07.791Z,48.05
2019-03-17T08:30:36.364Z,49.10
2019-03-17T08:33:06.159Z,48.42
2019-03-17T08:35:34.731Z,47.62
2019-03-17T08:38:03.348Z,44.23
2019-03-17T08:40:31.920Z,42.73
2019-03-17T08:43:00.481Z,41.50
2019-03-17T08:45:29.079Z,45.03
2019-03-17T08:47:58.684Z,44.53
2019-03-17T08:50:27.347Z,44.90
2019-03-17T08:52:55.915Z,45.70
2019-03-17T08:55:24.500Z,43.48
2019-03-17T08:57:53.066Z,39.48
2019-03-17T09:00:21.720Z,36.33
2019-03-17T09:02:50.296Z,34.83
2019-03-17T09:05:18.874Z,32.60
2019-03-17T09:07:47.451Z,32.30
2019-03-17T09:10:16.388Z,33.88
2019-03-17T09:12:44.966Z,35.30
2019-03-17T09:15:13.535Z,29.40
2019-03-17T09:17:42.124Z,32.85
2019-03-17T09:20:14.285Z,32.60
2019-03-17T09:22:42.909Z,29.85
2019-03-17T09:25:11.632Z,28.98
2019-03-17T09:27:40.195Z,30.70
2019-03-17T09:30:11.690Z,31.15
2019-03-17T09:32:40.271Z,30.77
2019-03-17T09:35:10.107Z,24.20
2019-03-17T09:37:38.690Z,24.47
2019-03-17T09:40:14.881Z,21.95
2019-03-17T09:42:43.530Z,23.35
2019-03-17T09:45:13.093Z,23.87
2019-03-17T09:47:41.738Z,25.30
2019-03-17T09:50:15.060Z,25.77
2019-03-17T09:52:43.630Z,25.02
2019-03-17T09:55:12.263Z,23.02
2019-03-17T09:57:40.824Z,21.93
2019-03-17T10:00:12.661Z,21.75
2019-03-17T10:02:41.315Z,20.15
2019-03-17T10:05:10.581Z,19.57
2019-03-17T10:07:39.197Z,21.52
2019-03-17T10:10:11.190Z,20.32
2019-03-17T10:12:39.756Z,17.57
2019-03-17T10:15:11.268Z,19.12
2019-03-17T10:17:39.899Z,18.10
2019-03-17T10:20:18.571Z,16.62
2019-03-17T10:22:47.222Z,16.52
2019-03-17T10:25:15.804Z,16.12
2019-03-17T10:27:44.388Z,15.80
2019-03-17T10:30:17.953Z,14.68
2019-03-17T10:32:46.524Z,14.53
2019-03-17T10:35:15.124Z,12.65
2019-03-17T10:37:43.673Z,11.97
2019-03-17T10:40:17.008Z,12.50
2019-03-17T10:42:45.609Z,12.45
2019-03-17T10:45:14.648Z,11.85
2019-03-17T10:47:43.206Z,11.15
2019-03-17T10:50:21.494Z,10.90
2019-03-17T10:52:50.109Z,11.80
2019-03-17T10:55:18.690Z,10.98
2019-03-17T10:57:47.262Z,10.60
2019-03-17T11:00:21.017Z,10.90
2019-03-17T11:02:49.589Z,11.57
2019-03-17T11:05:18.159Z,11.12
2019-03-17T11:07:46.751Z,11.60
2019-03-17T11:10:15.384Z,10.85
2019-03-17T11:12:43.970Z,11.43
2019-03-17T11:15:20.580Z,11.73
2019-03-17T11:17:49.192Z,11.12
2019-03-17T11:20:17.771Z,11.97
2019-03-17T11:22:46.361Z,12.47
2019-03-17T11:25:16.287Z,11.65
2019-03-17T11:27:44.942Z,11.88
2019-03-17T11:30:14.907Z,12.50
2019-03-17T11:32:43.471Z,11.80
2019-03-17T11:35:12.073Z,13.13
2019-03-17T11:37:40.634Z,12.70
2019-03-17T11:40:17.291Z,11.70
2019-03-17T11:42:45.859Z,12.40
2019-03-17T11:45:14.981Z,12.53
2019-03-17T11:47:44.085Z,13.40
2019-03-17T11:50:18.722Z,12.93
2019-03-17T11:52:47.377Z,12.47
2019-03-17T11:55:15.963Z,13.20
2019-03-17T11:57:44.522Z,12.93
2019-03-17T12:00:20.505Z,13.90
2019-03-17T12:02:49.110Z,12.68
2019-03-17T12:05:17.675Z,12.90
2019-03-17T12:07:46.272Z,13.30
2019-03-17T12:10:16.015Z,12.68
2019-03-17T12:12:44.575Z,13.65
2019-03-17T12:15:21.429Z,14.03
2019-03-17T12:17:50.024Z,14.45
2019-03-17T12:20:18.609Z,13.30
2019-03-17T12:22:47.195Z,13.03
2019-03-17T12:25:16.920Z,14.13
2019-03-17T12:27:45.498Z,15.15
2019-03-17T12:30:23.875Z,14.85
2019-03-17T12:32:53.008Z,14.63
2019-03-17T12:35:21.572Z,13.75
2019-03-17T12:37:50.276Z,14.15
2019-03-17T12:40:18.902Z,13.72
2019-03-17T12:42:47.480Z,14.18
2019-03-17T12:45:16.072Z,13.55
2019-03-17T12:47:44.646Z,13.20
2019-03-17T12:50:22.354Z,13.80
2019-03-17T12:52:50.924Z,13.90
2019-03-17T12:55:19.525Z,13.85
2019-03-17T12:57:48.095Z,14.60
2019-03-17T13:00:17.836Z,13.60
2019-03-17T13:02:46.387Z,14.03
2019-03-17T13:05:14.961Z,14.20
2019-03-17T13:07:43.554Z,13.80
2019-03-17T13:10:17.361Z,14.58
2019-03-17T13:12:46.007Z,13.62
2019-03-17T13:15:14.649Z,13.38
2019-03-17T13:17:43.247Z,14.68
2019-03-17T13:20:21.127Z,14.30
2019-03-17T13:22:49.702Z,13.62
2019-03-17T13:25:18.278Z,14.13
2019-03-17T13:27:46.870Z,14.28
2019-03-17T13:30:16.357Z,12.37
2019-03-17T13:32:44.918Z,13.38
2019-03-17T13:35:13.511Z,14.30
2019-03-17T13:37:42.116Z,13.78
2019-03-17T13:40:28.276Z,13.90
2019-03-17T13:42:48.100Z,14.40
2019-03-17T13:45:16.689Z,14.78
2019-03-17T13:47:45.266Z,13.08
2019-03-17T13:50:20.568Z,13.03
2019-03-17T13:52:49.138Z,14.15
2019-03-17T13:55:17.739Z,13.95
2019-03-17T13:58:09.590Z,13.00
2019-03-17T14:00:38.182Z,14.05
2019-03-17T14:03:06.739Z,13.55
2019-03-17T14:05:35.389Z,14.00
2019-03-17T14:08:03.959Z,13.85
2019-03-17T14:10:40.971Z,13.55
2019-03-17T14:13:02.705Z,14.60
2019-03-17T14:15:31.275Z,13.55
2019-03-17T14:17:59.863Z,12.73
2019-03-17T14:20:28.431Z,14.53
2019-03-17T14:22:57.024Z,13.90
2019-03-17T14:25:31.338Z,13.32
2019-03-17T14:28:00.022Z,12.73
2019-03-17T14:30:30.052Z,14.05
2019-03-17T14:32:58.646Z,13.48
2019-03-17T14:35:27.210Z,13.03
2019-03-17T14:37:55.795Z,12.98
2019-03-17T14:40:24.447Z,12.37
2019-03-17T14:42:55.275Z,13.22
2019-03-17T14:45:23.182Z,12.78
2019-03-17T14:47:51.782Z,12.35
2019-03-17T14:50:21.388Z,12.80
2019-03-17T14:52:50.012Z,12.75
2019-03-17T14:55:18.580Z,12.05
2019-03-17T14:57:47.171Z,12.80
2019-03-17T15:00:19.516Z,13.00
2019-03-17T15:02:48.090Z,12.85
2019-03-17T15:05:16.686Z,13.90
2019-03-17T15:07:45.253Z,14.05
2019-03-17T15:10:21.248Z,13.95
2019-03-17T15:12:49.810Z,14.30
2019-03-17T15:15:20.510Z,14.47
2019-03-17T15:17:49.088Z,14.15
2019-03-17T15:20:19.330Z,14.25
2019-03-17T15:22:47.893Z,14.45
2019-03-17T15:25:16.499Z,14.13
2019-03-17T15:27:45.089Z,13.83
2019-03-17T15:30:21.970Z,13.88
2019-03-17T15:32:50.538Z,13.68
2019-03-17T15:35:19.191Z,13.98
2019-03-17T15:37:48.106Z,16.75
2019-03-17T15:40:18.084Z,18.20
2019-03-17T15:42:46.657Z,15.08
2019-03-17T15:45:16.761Z,13.70
2019-03-17T15:47:45.339Z,14.43
2019-03-17T15:50:18.699Z,13.40
2019-03-17T15:52:47.298Z,13.93
2019-03-17T15:55:16.933Z,13.90
2019-03-17T15:58:04.931Z,13.35
2019-03-17T16:00:33.516Z,13.32
2019-03-17T16:03:02.100Z,14.35
2019-03-17T16:05:30.679Z,14.30
2019-03-17T16:07:59.303Z,14.53
2019-03-17T16:10:30.291Z,14.10
2019-03-17T16:12:58.928Z,13.93
2019-03-17T16:15:27.921Z,13.60
2019-03-17T16:17:56.500Z,13.60
2019-03-17T16:20:28.903Z,13.98
2019-03-17T16:22:57.468Z,14.20
2019-03-17T16:25:28.656Z,15.90
2019-03-17T16:27:57.191Z,14.00
2019-03-17T16:30:28.078Z,13.53
2019-03-17T16:32:56.636Z,14.43
2019-03-17T16:35:25.233Z,14.15
2019-03-17T16:37:53.798Z,13.60
2019-03-17T16:40:27.389Z,14.00
2019-03-17T16:42:55.994Z,13.25
2019-03-17T16:45:24.523Z,14.30
2019-03-17T16:47:53.107Z,13.83
2019-03-17T16:50:22.815Z,13.48
2019-03-17T16:52:51.411Z,13.83
2019-03-17T16:55:23.250Z,14.40
2019-03-17T16:57:51.829Z,14.23
2019-03-17T17:00:25.076Z,14.00
2019-03-17T17:02:53.727Z,14.47
2019-03-17T17:05:23.233Z,14.35
2019-03-17T17:07:51.826Z,13.48
2019-03-17T17:10:29.635Z,14.03
2019-03-17T17:12:58.224Z,14.35
2019-03-17T17:15:28.870Z,14.98
2019-03-17T17:17:58.664Z,13.85
2019-03-17T17:20:32.587Z,14.23
2019-03-17T17:23:01.184Z,15.13
2019-03-17T17:25:29.755Z,15.25
2019-03-17T17:27:58.414Z,13.98
2019-03-17T17:30:26.986Z,14.00
2019-03-17T17:32:57.341Z,14.63
2019-03-17T17:35:26.169Z,15.18
2019-03-17T17:37:54.727Z,14.58
2019-03-17T17:40:27.556Z,14.87
2019-03-17T17:42:56.130Z,15.32
2019-03-17T17:45:25.566Z,15.72
2019-03-17T17:47:54.128Z,14.55
2019-03-17T17:50:24.340Z,15.63
2019-03-17T17:52:52.935Z,15.38
2019-03-17T17:55:23.021Z,15.32
2019-03-17T17:57:53.238Z,15.32
2019-03-17T18:00:23.613Z,15.10
2019-03-17T18:02:52.200Z,15.00
2019-03-17T18:05:20.773Z,14.60
2019-03-17T18:07:49.376Z,15.15
2019-03-17T18:10:18.729Z,14.63
2019-03-17T18:12:47.350Z,14.75
2019-03-17T18:15:24.155Z,15.40
2019-03-17T18:17:52.791Z,14.98
2019-03-17T18:20:23.169Z,16.42
2019-03-17T18:22:52.241Z,15.63
2019-03-17T18:25:21.867Z,15.53
2019-03-17T18:27:50.604Z,14.83
2019-03-17T18:30:20.619Z,17.85
2019-03-17T18:32:49.201Z,20.55
2019-03-17T18:35:17.854Z,23.20
2019-03-17T18:37:46.459Z,22.25
2019-03-17T18:40:16.081Z,21.07
2019-03-17T18:42:44.658Z,20.02
2019-03-17T18:45:26.739Z,19.87
2019-03-17T18:47:57.449Z,19.15
2019-03-17T18:50:25.488Z,18.55
2019-03-17T18:52:54.047Z,18.07
2019-03-17T18:55:22.643Z,18.35
2019-03-17T18:57:51.210Z,17.60
2019-03-17T19:00:20.832Z,18.27
2019-03-17T19:02:49.468Z,21.68
2019-03-17T19:05:20.001Z,20.25
2019-03-17T19:07:48.674Z,18.62
2019-03-17T19:10:18.187Z,18.57
2019-03-17T19:12:46.777Z,17.65
2019-03-17T19:15:18.606Z,18.02
2019-03-17T19:17:47.628Z,18.17
2019-03-17T19:20:17.100Z,17.75
2019-03-17T19:22:45.711Z,18.25
2019-03-17T19:25:22.783Z,19.32
2019-03-17T19:27:51.486Z,19.98
2019-03-17T19:30:20.911Z,20.08
2019-03-17T19:32:49.520Z,20.60
2019-03-17T19:35:18.100Z,21.27
2019-03-17T19:37:46.659Z,21.87
2019-03-17T19:40:19.223Z,22.10
2019-03-17T19:42:57.944Z,22.87
2019-03-17T19:45:17.994Z,21.90
2019-03-17T19:47:46.566Z,21.40
2019-03-17T19:50:17.362Z,21.30
2019-03-17T19:52:45.923Z,21.30
2019-03-17T19:55:14.518Z,21.10
2019-03-17T19:57:43.223Z,20.25
2019-03-17T20:00:35.788Z,20.68
2019-03-17T20:03:08.301Z,20.48
2019-03-17T20:05:36.895Z,19.65
2019-03-17T20:08:05.690Z,19.77
2019-03-17T20:10:35.031Z,19.95
2019-03-17T20:13:11.527Z,18.80
2019-03-17T20:15:33.965Z,18.17
2019-03-17T20:18:02.540Z,17.17
2019-03-17T20:20:31.106Z,17.23
2019-03-17T20:22:59.693Z,16.30
2019-03-17T20:25:28.263Z,16.95
2019-03-17T20:27:56.860Z,16.35
2019-03-17T20:30:26.698Z,16.10
2019-03-17T20:32:55.347Z,14.98
2019-03-17T20:35:23.953Z,14.95
2019-03-17T20:37:52.567Z,15.53
2019-03-17T20:40:21.164Z,14.63
2019-03-17T20:42:49.811Z,13.83
2019-03-17T20:45:20.324Z,12.73
2019-03-17T20:47:49.626Z,13.35
2019-03-17T20:50:19.066Z,12.28
2019-03-17T20:52:47.795Z,11.28
2019-03-17T20:55:16.380Z,11.48
2019-03-17T20:57:44.955Z,10.60
2019-03-17T21:00:17.320Z,11.05
2019-03-17T21:02:45.884Z,10.28
2019-03-17T21:05:14.511Z,10.50
2019-03-17T21:07:43.167Z,9.80
2019-03-17T21:10:15.706Z,9.18
2019-03-17T21:12:44.275Z,9.70
2019-03-17T21:15:20.857Z,9.10
2019-03-17T21:17:49.431Z,9.33
2019-03-17T21:20:21.272Z,8.33
2019-03-17T21:22:49.966Z,8.60
2019-03-17T21:25:18.549Z,8.65
2019-03-17T21:27:47.147Z,8.55
2019-03-17T21:30:27.965Z,7.87
2019-03-17T21:32:56.559Z,7.67
2019-03-17T21:35:25.129Z,7.37
2019-03-17T21:37:53.719Z,7.25
2019-03-17T21:40:22.373Z,7.22
2019-03-17T21:42:50.961Z,6.75
2019-03-17T21:45:19.539Z,6.70
2019-03-17T21:47:48.148Z,6.58
2019-03-17T21:50:22.959Z,6.85
2019-03-17T21:52:51.560Z,6.92
2019-03-17T21:55:20.185Z,6.33
2019-03-17T21:57:48.725Z,6.97
2019-03-17T22:00:18.159Z,7.22
2019-03-17T22:02:46.739Z,6.28
2019-03-17T22:05:15.392Z,7.33
2019-03-17T22:07:50.325Z,6.20
2019-03-17T22:10:16.398Z,6.45
2019-03-17T22:12:44.976Z,6.22
2019-03-17T22:15:14.597Z,6.53
2019-03-17T22:17:43.159Z,5.67
2019-03-17T22:20:13.982Z,5.95
2019-03-17T22:22:42.618Z,5.10
2019-03-17T22:25:14.928Z,5.40
2019-03-17T22:27:43.508Z,4.90
2019-03-17T22:30:15.405Z,5.40
2019-03-17T22:32:43.995Z,5.08
2019-03-17T22:35:12.563Z,4.67
2019-03-17T22:37:41.171Z,4.90
2019-03-17T22:40:15.778Z,4.92
2019-03-17T22:42:44.356Z,5.05
2019-03-17T22:45:13.963Z,4.65
2019-03-17T22:47:42.573Z,4.60
2019-03-17T22:50:17.614Z,5.08
2019-03-17T22:52:46.215Z,4.97
2019-03-17T22:55:14.951Z,4.80
2019-03-17T22:57:43.539Z,4.90
2019-03-17T23:00:26.222Z,4.45
2019-03-17T23:02:54.826Z,4.10
2019-03-17T23:05:23.426Z,4.72
2019-03-17T23:07:51.990Z,4.72
2019-03-17T23:10:20.584Z,4.55
2019-03-17T23:12:49.245Z,3.80
2019-03-17T23:15:17.798Z,4.65
2019-03-17T23:17:46.367Z,4.92
2019-03-17T23:20:16.087Z,4.75
2019-03-17T23:22:44.660Z,4.92
2019-03-17T23:25:13.520Z,4.37
2019-03-17T23:27:42.087Z,3.87
2019-03-17T23:30:17.609Z,4.53
2019-03-17T23:32:48.960Z,4.05
2019-03-17T23:35:16.367Z,4.67
2019-03-17T23:37:44.936Z,4.80
2019-03-17T23:40:14.845Z,4.60
2019-03-17T23:42:43.430Z,4.85
2019-03-17T23:45:12.268Z,4.37
2019-03-17T23:47:40.849Z,4.70
2019-03-17T23:50:11.817Z,4.90
2019-03-17T23:52:40.400Z,4.80
2019-03-17T23:55:12.367Z,4.22
